Time;durP1;ratioP1;P1;durP2;ratioP2;P2;SDS_P1;SDS_P2;PMS_P1;PMS_P2;Temp;Humidity;BMP_temperature;BMP_pressure;BME280_temperature;BME280_humidity;BME280_pressure;Samples;Min_cycle;Max_cycle;Signal;HPM_P1;HPM_P2
2023/10/26 00:00:47;;;;;;;10.13;8.10;;;11.50;99.90;;;;;;5057719;28;20424;-61
2023/10/26 00:03:14;;;;;;;13.27;8.33;;;11.50;99.90;;;;;;5058407;28;20455;-61
2023/10/26 00:05:42;;;;;;;15.00;9.37;;;11.50;99.90;;;;;;5058398;28;20431;-64
2023/10/26 00:08:09;;;;;;;12.63;8.80;;;11.50;99.90;;;;;;5058745;28;20424;-62
2023/10/26 00:10:39;;;;;;;13.63;8.00;;;11.50;99.90;;;;;;5058265;28;20460;-62
2023/10/26 00:13:06;;;;;;;12.90;7.87;;;11.50;99.90;;;;;;5058316;28;20428;-61
2023/10/26 00:15:33;;;;;;;12.13;9.00;;;11.50;99.90;;;;;;5058120;28;20487;-55
2023/10/26 00:18:00;;;;;;;12.33;8.87;;;11.50;99.90;;;;;;5058478;28;20435;-69
2023/10/26 00:20:27;;;;;;;12.13;8.10;;;11.50;99.90;;;;;;5057893;28;20441;-62
2023/10/26 00:22:55;;;;;;;9.50;7.10;;;11.50;99.90;;;;;;5058147;28;20448;-64
2023/10/26 00:25:22;;;;;;;11.37;7.50;;;11.50;99.90;;;;;;5057894;28;20428;-59
2023/10/26 00:27:49;;;;;;;11.60;7.00;;;11.50;99.90;;;;;;5058111;28;20449;-67
2023/10/26 00:30:16;;;;;;;9.60;7.13;;;11.50;99.90;;;;;;5057449;28;20449;-62
2023/10/26 00:32:44;;;;;;;12.40;8.27;;;11.50;99.90;;;;;;5057840;28;20444;-64
2023/10/26 00:35:11;;;;;;;11.67;7.77;;;11.40;99.90;;;;;;5057434;28;20500;-66
2023/10/26 00:37:38;;;;;;;10.40;8.87;;;11.40;99.90;;;;;;5057024;28;20436;-64
2023/10/26 00:40:10;;;;;;;8.40;7.30;;;11.30;99.90;;;;;;5057249;28;20432;-65
2023/10/26 00:42:37;;;;;;;11.73;7.87;;;11.30;99.90;;;;;;5056910;28;20468;-67
2023/10/26 00:45:05;;;;;;;12.13;8.33;;;11.40;99.90;;;;;;5056708;28;20444;-56
2023/10/26 00:47:32;;;;;;;15.50;9.90;;;11.30;99.90;;;;;;5057186;28;20475;-67
2023/10/26 00:50:00;;;;;;;11.60;8.47;;;11.30;99.90;;;;;;5057092;28;20461;-65
2023/10/26 00:52:27;;;;;;;10.50;9.10;;;11.30;99.90;;;;;;5056854;28;20957;-61
2023/10/26 00:54:55;;;;;;;12.27;8.10;;;11.40;99.90;;;;;;5056821;28;20456;-67
2023/10/26 00:57:24;;;;;;;10.90;8.27;;;11.30;99.90;;;;;;5056244;28;20510;-62
2023/10/26 00:59:53;;;;;;;12.90;8.90;;;11.30;99.90;;;;;;5056271;28;20452;-62
2023/10/26 01:02:20;;;;;;;11.90;9.53;;;11.30;99.90;;;;;;5056434;28;20441;-64
2023/10/26 01:04:50;;;;;;;12.20;8.63;;;11.30;99.90;;;;;;5056381;28;20833;-61
2023/10/26 01:07:17;;;;;;;17.33;8.60;;;11.30;99.90;;;;;;5056421;28;20420;-65
2023/10/26 01:09:44;;;;;;;11.03;8.33;;;11.30;99.90;;;;;;5056239;28;20475;-65
2023/10/26 01:12:11;;;;;;;12.40;8.90;;;11.30;99.90;;;;;;5056489;28;20512;-61
2023/10/26 01:14:41;;;;;;;15.13;9.60;;;11.30;99.90;;;;;;5057146;28;20420;-65
2023/10/26 01:17:08;;;;;;;14.47;10.40;;;11.30;99.90;;;;;;5056918;28;20472;-62
2023/10/26 01:19:40;;;;;;;10.10;8.10;;;11.30;99.90;;;;;;5056589;28;20472;-60
2023/10/26 01:22:11;;;;;;;12.57;9.57;;;11.30;99.90;;;;;;5056612;28;20439;-60
2023/10/26 01:24:39;;;;;;;18.30;10.20;;;11.30;99.90;;;;;;5056919;28;20416;-66
2023/10/26 01:27:06;;;;;;;17.70;10.53;;;11.30;99.90;;;;;;5056211;28;20475;-58
2023/10/26 01:29:33;;;;;;;17.17;8.63;;;10.60;99.90;;;;;;5055897;28;20483;-61
2023/10/26 01:32:02;;;;;;;10.53;8.27;;;11.30;99.90;;;;;;5056076;28;20444;-64
2023/10/26 01:34:31;;;;;;;10.90;7.93;;;11.30;99.90;;;;;;5056164;28;20444;-62
2023/10/26 01:36:58;;;;;;;13.07;10.17;;;11.30;99.90;;;;;;5056339;28;20448;-59
2023/10/26 01:39:26;;;;;;;15.00;10.90;;;11.30;99.90;;;;;;5056276;28;21009;-64
2023/10/26 01:41:53;;;;;;;11.00;8.30;;;11.30;99.90;;;;;;5056716;28;20472;-67
2023/10/26 01:44:20;;;;;;;13.83;8.90;;;11.30;99.90;;;;;;5056256;28;20444;-62
2023/10/26 01:46:47;;;;;;;16.03;10.40;;;11.30;99.90;;;;;;5056670;28;20943;-66
2023/10/26 01:49:14;;;;;;;17.20;9.80;;;11.30;99.90;;;;;;5056508;28;20475;-63
2023/10/26 01:51:41;;;;;;;15.53;10.27;;;11.30;99.90;;;;;;5056556;28;20436;-63
2023/10/26 01:54:07;;;;;;;17.37;10.33;;;11.30;99.90;;;;;;5055743;28;20440;-63
2023/10/26 01:56:37;;;;;;;14.00;9.40;;;11.30;99.90;;;;;;5055475;28;20488;-64
2023/10/26 01:59:04;;;;;;;14.70;9.50;;;11.30;99.90;;;;;;5056566;28;20460;-63
2023/10/26 02:01:30;;;;;;;13.37;9.60;;;11.30;99.90;;;;;;5056766;28;20428;-64
2023/10/26 02:03:59;;;;;;;14.93;9.70;;;11.30;99.90;;;;;;5056707;28;20483;-61
2023/10/26 02:06:26;;;;;;;14.27;9.63;;;11.30;99.90;;;;;;5056364;28;20462;-62
2023/10/26 02:08:53;;;;;;;11.90;8.37;;;11.30;99.90;;;;;;5056666;28;20459;-66
2023/10/26 02:11:20;;;;;;;18.23;10.43;;;11.30;99.90;;;;;;5056131;28;20471;-61
2023/10/26 02:13:48;;;;;;;12.97;9.60;;;11.30;99.90;;;;;;5057056;28;20424;-60
2023/10/26 02:16:17;;;;;;;13.37;9.23;;;11.30;99.90;;;;;;5056559;28;20676;-59
2023/10/26 02:18:45;;;;;;;17.27;10.93;;;11.20;99.90;;;;;;5056536;28;20455;-60
2023/10/26 02:21:12;;;;;;;14.27;10.10;;;11.20;99.90;;;;;;5056444;28;20559;-61
2023/10/26 02:23:40;;;;;;;12.40;10.20;;;11.20;99.90;;;;;;5056255;28;20455;-66
2023/10/26 02:26:08;;;;;;;15.87;9.97;;;11.30;99.90;;;;;;5056392;28;20507;-66
2023/10/26 02:28:35;;;;;;;12.87;9.00;;;11.30;99.90;;;;;;5056559;28;20456;-59
2023/10/26 02:31:04;;;;;;;13.67;9.03;;;11.30;99.90;;;;;;5056402;28;20444;-60
2023/10/26 02:33:31;;;;;;;14.97;10.63;;;11.30;99.90;;;;;;5055828;28;20460;-58
2023/10/26 02:35:57;;;;;;;11.37;9.67;;;11.30;99.90;;;;;;5055696;28;20479;-61
2023/10/26 02:38:24;;;;;;;13.73;8.63;;;11.30;99.90;;;;;;5056338;28;20444;-62
2023/10/26 02:40:51;;;;;;;12.40;9.17;;;11.30;99.90;;;;;;5056508;28;20476;-59
2023/10/26 02:43:19;;;;;;;12.70;9.27;;;11.30;99.90;;;;;;5056592;28;20440;-62
2023/10/26 02:45:48;;;;;;;14.03;9.60;;;11.30;99.90;;;;;;5056185;28;20452;-58
2023/10/26 02:48:15;;;;;;;16.10;9.60;;;11.30;99.90;;;;;;5055949;28;20532;-59
2023/10/26 02:50:43;;;;;;;13.37;10.57;;;11.40;99.90;;;;;;5055961;28;20463;-66
2023/10/26 02:53:10;;;;;;;12.77;8.80;;;11.30;99.90;;;;;;5055776;28;20424;-57
2023/10/26 02:55:37;;;;;;;16.17;10.20;;;11.40;99.90;;;;;;5055992;28;20444;-62
2023/10/26 02:58:06;;;;;;;15.10;11.30;;;11.30;99.90;;;;;;5056431;28;20463;-59
2023/10/26 03:00:39;;;;;;;13.43;10.90;;;11.30;99.90;;;;;;5055924;28;20439;-60
2023/10/26 03:03:08;;;;;;;17.70;11.20;;;11.40;99.90;;;;;;5055639;28;20456;-64
2023/10/26 03:05:38;;;;;;;12.03;9.77;;;11.40;99.90;;;;;;5055792;28;20440;-62
2023/10/26 03:08:05;;;;;;;13.10;10.10;;;11.40;99.90;;;;;;5055945;28;20478;-64
2023/10/26 03:10:34;;;;;;;15.07;10.07;;;11.40;99.90;;;;;;5055558;28;20429;-64
2023/10/26 03:13:01;;;;;;;18.30;10.90;;;11.50;99.90;;;;;;5055550;28;20419;-60
2023/10/26 03:15:28;;;;;;;13.40;9.37;;;11.50;99.90;;;;;;5055760;28;20464;-61
2023/10/26 03:17:54;;;;;;;14.80;10.60;;;11.50;99.90;;;;;;5056064;28;20464;-55
2023/10/26 03:20:21;;;;;;;16.10;10.70;;;11.50;99.90;;;;;;5058598;28;20447;-61
2023/10/26 03:22:50;;;;;;;14.50;10.20;;;11.50;99.90;;;;;;5041556;28;20465;-55
2023/10/26 03:25:17;;;;;;;15.53;11.13;;;11.50;99.90;;;;;;5038340;28;20448;-63
2023/10/26 03:27:44;;;;;;;14.80;10.27;;;11.50;99.90;;;;;;5037864;28;20512;-67
2023/10/26 03:30:20;;;;;;;14.87;10.60;;;11.50;99.90;;;;;;5038811;28;20484;-57
2023/10/26 03:32:47;;;;;;;18.47;11.03;;;11.40;99.90;;;;;;5038448;28;20537;-60
2023/10/26 03:35:13;;;;;;;19.03;12.67;;;11.50;99.90;;;;;;5039241;28;20446;-57
2023/10/26 03:37:40;;;;;;;17.27;11.00;;;11.40;99.90;;;;;;5038745;28;20523;-63
2023/10/26 03:40:10;;;;;;;15.10;10.13;;;11.50;99.90;;;;;;5039084;28;20456;-59
2023/10/26 03:42:37;;;;;;;14.83;10.30;;;11.40;99.90;;;;;;5038744;28;20460;-64
2023/10/26 03:45:04;;;;;;;15.10;10.87;;;11.40;99.90;;;;;;5039529;28;20472;-61
2023/10/26 03:47:31;;;;;;;14.80;9.73;;;11.40;99.90;;;;;;5058562;28;20441;-62
2023/10/26 03:49:58;;;;;;;16.50;11.33;;;11.40;99.90;;;;;;5058518;28;20459;-65
2023/10/26 03:52:25;;;;;;;14.10;10.53;;;11.50;99.90;;;;;;5058588;28;20440;-60
2023/10/26 03:54:52;;;;;;;15.33;9.70;;;11.50;99.90;;;;;;5058080;28;20432;-62
2023/10/26 03:57:22;;;;;;;14.43;9.73;;;11.50;99.90;;;;;;5058004;28;20475;-66
2023/10/26 03:59:49;;;;;;;13.70;9.43;;;11.50;99.90;;;;;;5058243;28;20443;-61
2023/10/26 04:02:16;;;;;;;19.80;10.30;;;11.40;99.90;;;;;;5058441;28;20456;-61
2023/10/26 04:04:43;;;;;;;18.50;10.57;;;11.40;99.90;;;;;;5057728;28;20440;-65
2023/10/26 04:07:10;;;;;;;14.60;9.97;;;11.40;99.90;;;;;;5058208;28;20448;-62
2023/10/26 04:09:37;;;;;;;13.60;9.23;;;11.40;99.90;;;;;;5058194;28;20474;-63
2023/10/26 04:12:05;;;;;;;14.60;10.30;;;11.40;99.90;;;;;;5057827;28;20451;-58
2023/10/26 04:14:34;;;;;;;14.00;9.03;;;11.40;99.90;;;;;;5058099;28;20420;-67
2023/10/26 04:17:00;;;;;;;12.83;7.87;;;11.40;99.90;;;;;;5057899;28;20531;-63
2023/10/26 04:19:27;;;;;;;10.60;7.80;;;11.40;99.90;;;;;;5057591;28;20448;-60
2023/10/26 04:21:54;;;;;;;11.80;7.83;;;11.40;99.90;;;;;;5058403;28;20429;-65
2023/10/26 04:24:21;;;;;;;10.27;8.17;;;11.40;99.90;;;;;;5057889;28;20487;-66
2023/10/26 04:26:49;;;;;;;15.20;8.20;;;11.40;99.90;;;;;;5058260;28;20467;-62
2023/10/26 04:29:16;;;;;;;13.63;8.70;;;11.40;99.90;;;;;;5057364;28;20438;-56
2023/10/26 04:31:44;;;;;;;12.53;8.33;;;11.40;99.90;;;;;;5056226;28;20463;-63
2023/10/26 04:34:11;;;;;;;11.23;7.77;;;11.30;99.90;;;;;;5055840;28;20468;-64
2023/10/26 04:36:38;;;;;;;10.40;6.93;;;11.30;99.90;;;;;;5057167;28;20455;-61
2023/10/26 04:39:08;;;;;;;12.23;8.50;;;11.30;99.90;;;;;;5057292;28;20462;-65
2023/10/26 04:41:36;;;;;;;17.63;8.97;;;11.30;99.90;;;;;;5057462;28;20502;-65
2023/10/26 04:44:05;;;;;;;13.30;8.57;;;11.30;99.90;;;;;;5057636;28;20432;-59
2023/10/26 04:46:31;;;;;;;12.60;8.57;;;11.30;99.90;;;;;;5057552;28;20468;-59
2023/10/26 04:49:00;;;;;;;12.77;8.20;;;11.40;99.90;;;;;;5057647;28;20472;-59
2023/10/26 04:51:29;;;;;;;10.47;7.70;;;11.40;99.90;;;;;;5057573;28;20444;-57
2023/10/26 04:53:58;;;;;;;12.33;8.30;;;11.40;99.90;;;;;;5057919;28;20467;-62
2023/10/26 04:56:25;;;;;;;12.17;8.10;;;11.40;99.90;;;;;;5057098;28;20449;-59
2023/10/26 04:58:55;;;;;;;11.90;8.27;;;11.40;99.90;;;;;;5057297;28;20471;-61
2023/10/26 05:01:22;;;;;;;12.40;8.17;;;11.40;99.90;;;;;;5057350;28;20443;-62
2023/10/26 05:03:48;;;;;;;12.13;8.90;;;11.40;99.90;;;;;;5056950;28;20507;-59
2023/10/26 05:06:17;;;;;;;12.20;9.47;;;11.40;99.90;;;;;;5057580;28;20440;-55
2023/10/26 05:08:46;;;;;;;13.37;8.97;;;11.40;99.90;;;;;;5056985;28;20447;-60
2023/10/26 05:11:13;;;;;;;11.70;8.87;;;11.40;99.90;;;;;;5057176;28;20432;-63
2023/10/26 05:13:40;;;;;;;12.07;8.43;;;11.40;99.90;;;;;;5057131;28;20456;-64
2023/10/26 05:16:07;;;;;;;13.37;8.20;;;11.50;99.90;;;;;;5057377;28;20468;-64
2023/10/26 05:18:34;;;;;;;10.17;7.83;;;11.50;99.90;;;;;;5057085;28;20472;-64
2023/10/26 05:21:01;;;;;;;11.60;7.67;;;11.40;99.90;;;;;;5057727;28;20424;-61
2023/10/26 05:23:29;;;;;;;12.77;8.10;;;11.40;99.90;;;;;;5057223;28;20472;-62
2023/10/26 05:25:56;;;;;;;9.87;7.73;;;11.40;99.90;;;;;;5056682;28;20455;-68
2023/10/26 05:28:23;;;;;;;13.03;8.10;;;11.40;99.90;;;;;;5056897;28;20468;-62
2023/10/26 05:30:50;;;;;;;11.77;7.93;;;11.40;99.90;;;;;;5057019;28;20451;-63
2023/10/26 05:33:16;;;;;;;11.70;8.27;;;11.40;99.90;;;;;;5057078;28;20432;-62
2023/10/26 05:35:43;;;;;;;13.40;8.23;;;11.40;99.90;;;;;;5056793;28;20460;-60
2023/10/26 05:38:10;;;;;;;12.40;9.10;;;11.40;99.90;;;;;;5056495;28;20495;-59
2023/10/26 05:40:38;;;;;;;10.50;8.00;;;11.40;99.90;;;;;;5056659;28;20492;-61
2023/10/26 05:43:05;;;;;;;10.60;7.50;;;11.40;99.90;;;;;;5056279;28;20428;-61
2023/10/26 05:45:37;;;;;;;9.53;6.93;;;11.40;99.90;;;;;;5056512;28;20476;-63
2023/10/26 05:48:08;;;;;;;10.73;6.93;;;11.40;99.90;;;;;;5056842;28;20452;-65
2023/10/26 05:50:40;;;;;;;14.50;7.40;;;11.40;99.90;;;;;;5057097;28;20421;-65
2023/10/26 05:53:10;;;;;;;12.50;8.23;;;11.40;99.90;;;;;;5056518;28;20436;-60
2023/10/26 05:55:39;;;;;;;11.80;8.03;;;11.40;99.90;;;;;;5055411;28;20483;-63
2023/10/26 05:58:08;;;;;;;11.90;8.10;;;11.40;99.90;;;;;;5050959;28;20494;-67
2023/10/26 06:00:39;;;;;;;10.67;7.33;;;11.40;99.90;;;;;;5055548;28;20471;-66
2023/10/26 06:03:09;;;;;;;12.87;7.97;;;11.50;99.90;;;;;;5056662;28;20475;-63
2023/10/26 06:05:35;;;;;;;11.23;7.53;;;11.40;99.90;;;;;;5036417;28;20429;-65
2023/10/26 06:08:02;;;;;;;10.03;7.63;;;11.40;99.90;;;;;;5042744;28;20491;-61
2023/10/26 06:10:29;;;;;;;8.90;7.33;;;11.40;99.90;;;;;;5057335;28;20464;-64
2023/10/26 06:12:59;;;;;;;11.00;7.33;;;11.50;99.90;;;;;;5057467;28;20424;-65
2023/10/26 06:15:26;;;;;;;12.13;8.33;;;11.40;99.90;;;;;;5049703;28;20463;-66
2023/10/26 06:17:54;;;;;;;11.57;7.50;;;11.40;99.90;;;;;;5046776;28;20512;-63
2023/10/26 06:20:24;;;;;;;7.60;6.73;;;11.50;99.90;;;;;;5050756;28;20464;-64
2023/10/26 06:22:51;;;;;;;9.47;7.07;;;11.50;99.90;;;;;;5056841;28;20448;-61
2023/10/26 06:25:18;;;;;;;10.40;7.83;;;11.50;99.90;;;;;;5056433;28;20471;-65
2023/10/26 06:27:48;;;;;;;10.40;7.63;;;11.50;99.90;;;;;;5056678;28;20436;-64
2023/10/26 06:30:17;;;;;;;13.20;8.30;;;11.50;99.90;;;;;;5054934;28;20448;-60
2023/10/26 06:32:44;;;;;;;8.63;7.07;;;11.50;99.90;;;;;;5056172;28;20424;-62
2023/10/26 06:35:11;;;;;;;11.20;8.53;;;11.40;99.90;;;;;;5055831;28;20475;-59
2023/10/26 06:37:38;;;;;;;7.77;6.37;;;11.50;99.90;;;;;;5056029;28;20487;-64
2023/10/26 06:40:06;;;;;;;10.00;6.10;;;11.40;99.90;;;;;;5055994;28;20440;-62
2023/10/26 06:42:34;;;;;;;9.23;6.20;;;11.50;99.90;;;;;;5053317;28;20492;-57
2023/10/26 06:45:03;;;;;;;9.60;7.47;;;11.50;99.90;;;;;;5056567;28;20428;-61
2023/10/26 06:47:32;;;;;;;8.80;6.23;;;11.50;99.90;;;;;;5056424;28;20519;-61
2023/10/26 06:49:58;;;;;;;10.27;8.53;;;11.60;99.90;;;;;;5048496;28;20464;-61
2023/10/26 06:52:25;;;;;;;10.50;7.70;;;11.60;99.90;;;;;;5047134;28;20491;-61
2023/10/26 06:54:52;;;;;;;8.60;6.10;;;11.60;99.90;;;;;;5059521;28;20464;-63
2023/10/26 06:57:20;;;;;;;12.03;7.53;;;11.50;99.90;;;;;;5059668;28;20467;-63
2023/10/26 06:59:48;;;;;;;9.90;7.30;;;11.50;99.90;;;;;;5058470;28;20471;-55
2023/10/26 07:02:15;;;;;;;10.40;7.20;;;11.50;99.90;;;;;;5039505;28;20455;-61
2023/10/26 07:04:43;;;;;;;12.73;6.50;;;11.50;99.90;;;;;;5043486;28;20468;-59
2023/10/26 07:07:10;;;;;;;9.77;6.90;;;11.50;99.90;;;;;;5060131;28;20436;-63
2023/10/26 07:09:37;;;;;;;12.80;7.80;;;11.60;99.90;;;;;;5059591;28;20448;-61
2023/10/26 07:12:05;;;;;;;11.67;8.30;;;11.60;99.90;;;;;;5059210;28;20468;-58
2023/10/26 07:14:32;;;;;;;8.67;6.77;;;11.60;99.90;;;;;;5058933;28;20445;-65
2023/10/26 07:16:58;;;;;;;9.60;7.60;;;11.60;99.90;;;;;;5057520;28;20463;-60
2023/10/26 07:19:25;;;;;;;9.87;7.00;;;11.60;99.90;;;;;;5058493;28;20486;-63
2023/10/26 07:21:54;;;;;;;8.67;6.97;;;11.60;99.90;;;;;;5057220;28;20503;-65
2023/10/26 07:24:20;;;;;;;11.00;8.10;;;11.60;99.90;;;;;;5054939;28;20440;-65
2023/10/26 07:26:50;;;;;;;9.20;7.20;;;11.60;99.90;;;;;;5059122;28;20483;-66
2023/10/26 07:29:17;;;;;;;8.83;7.47;;;11.60;99.90;;;;;;5051121;28;20475;-62
2023/10/26 07:31:46;;;;;;;10.87;7.97;;;11.60;99.90;;;;;;5054735;28;20452;-61
2023/10/26 07:34:13;;;;;;;40.33;19.60;;;11.60;99.90;;;;;;5057047;28;20476;-59
2023/10/26 07:36:39;;;;;;;8.40;6.83;;;11.70;99.90;;;;;;5055538;28;20460;-59
2023/10/26 07:39:08;;;;;;;13.63;7.57;;;11.60;99.90;;;;;;5059230;28;20483;-65
2023/10/26 07:41:34;;;;;;;9.97;7.77;;;11.60;99.90;;;;;;5058310;28;20460;-63
2023/10/26 07:49:32;;;;;;;8.87;6.90;;;11.60;99.90;;;;;;5042495;28;20205;-68
2023/10/26 07:52:11;;;;;;;9.03;6.67;;;11.70;99.90;;;;;;5052772;28;20239;-68
2023/10/26 07:54:40;;;;;;;12.17;8.23;;;11.60;99.90;;;;;;5055035;28;20493;-68
2023/10/26 07:57:13;;;;;;;10.30;7.40;;;11.60;99.90;;;;;;5053881;28;20817;-68
2023/10/26 07:59:41;;;;;;;10.23;7.80;;;11.60;99.90;;;;;;5055049;28;20443;-67
2023/10/26 08:02:16;;;;;;;11.23;7.60;;;11.60;99.90;;;;;;5054967;28;20773;-68
2023/10/26 08:04:42;;;;;;;11.13;7.60;;;11.70;99.90;;;;;;5053657;28;20439;-68
2023/10/26 08:07:10;;;;;;;9.40;7.30;;;11.70;99.90;;;;;;5054693;28;20869;-68
2023/10/26 08:09:43;;;;;;;11.10;7.73;;;11.70;99.90;;;;;;5055107;28;20420;-68
2023/10/26 08:12:11;;;;;;;10.03;7.93;;;11.80;99.90;;;;;;5054681;28;20439;-67
2023/10/26 08:14:44;;;;;;;11.00;7.80;;;11.80;99.90;;;;;;5055214;28;20419;-67
2023/10/26 08:17:12;;;;;;;12.00;7.73;;;11.80;99.90;;;;;;5054533;28;20998;-68
2023/10/26 08:19:51;;;;;;;12.50;7.50;;;11.80;99.90;;;;;;5055050;28;20904;-67
2023/10/26 08:22:24;;;;;;;10.60;7.40;;;11.80;99.90;;;;;;5054782;28;20466;-68
2023/10/26 08:24:53;;;;;;;12.23;7.97;;;11.80;99.90;;;;;;5054440;28;20443;-67
2023/10/26 08:27:23;;;;;;;10.80;7.80;;;11.80;99.90;;;;;;5054676;28;20560;-68
2023/10/26 08:29:51;;;;;;;11.27;8.80;;;11.80;99.90;;;;;;5053996;28;20435;-68
2023/10/26 08:32:22;;;;;;;11.60;8.73;;;11.80;99.90;;;;;;5054624;28;20816;-68
2023/10/26 08:34:55;;;;;;;11.70;8.00;;;11.90;99.90;;;;;;5054554;28;20463;-67
2023/10/26 08:37:22;;;;;;;12.60;9.07;;;11.90;99.90;;;;;;5054539;28;20460;-68
2023/10/26 08:39:52;;;;;;;11.87;7.93;;;11.90;99.90;;;;;;5054195;28;20459;-68
2023/10/26 08:42:19;;;;;;;12.50;8.60;;;11.90;99.90;;;;;;5054627;28;20428;-67
2023/10/26 08:45:02;;;;;;;9.57;7.73;;;11.90;99.90;;;;;;5054502;28;20797;-68
2023/10/26 08:47:32;;;;;;;10.87;8.43;;;11.90;99.90;;;;;;5054289;28;20427;-68
2023/10/26 08:50:07;;;;;;;11.87;8.20;;;11.90;99.90;;;;;;5054192;28;20456;-68
2023/10/26 08:52:49;;;;;;;10.67;7.80;;;11.90;99.90;;;;;;5054052;28;20467;-68
2023/10/26 08:55:17;;;;;;;11.43;8.10;;;11.90;99.90;;;;;;5053976;28;20443;-68
2023/10/26 08:57:48;;;;;;;11.13;7.80;;;11.90;99.90;;;;;;5053805;28;20940;-67
2023/10/26 09:00:16;;;;;;;13.47;9.30;;;11.90;99.90;;;;;;5054125;28;20454;-66
2023/10/26 09:02:51;;;;;;;17.33;8.83;;;11.90;99.90;;;;;;5054229;28;20542;-67
2023/10/26 09:05:21;;;;;;;13.70;8.00;;;11.90;99.90;;;;;;5054239;28;20963;-67
2023/10/26 09:07:48;;;;;;;10.93;7.43;;;12.00;99.90;;;;;;5053803;28;20505;-67
2023/10/26 09:10:33;;;;;;;10.20;7.63;;;12.00;99.90;;;;;;5054422;28;20431;-67
2023/10/26 09:13:02;;;;;;;18.13;8.63;;;12.00;99.90;;;;;;5054526;28;20432;-67
2023/10/26 09:15:29;;;;;;;9.23;6.87;;;12.00;99.90;;;;;;5054382;28;20455;-67
2023/10/26 09:18:10;;;;;;;12.13;8.10;;;12.10;99.90;;;;;;5054363;28;20478;-67
2023/10/26 09:20:38;;;;;;;10.70;7.60;;;12.10;99.90;;;;;;5054021;28;20443;-67
2023/10/26 09:23:05;;;;;;;11.23;8.20;;;12.10;99.90;;;;;;5054208;28;20473;-66
2023/10/26 09:25:39;;;;;;;9.90;7.07;;;12.10;99.90;;;;;;5054826;28;21006;-66
2023/10/26 09:28:06;;;;;;;12.83;8.13;;;12.10;99.90;;;;;;5054309;28;20859;-66
2023/10/26 09:30:33;;;;;;;10.70;7.10;;;12.10;99.90;;;;;;5054148;28;20427;-67
2023/10/26 09:33:03;;;;;;;8.67;6.80;;;12.10;99.90;;;;;;5054228;28;20805;-70
2023/10/26 09:35:33;;;;;;;11.23;7.20;;;12.10;99.90;;;;;;5053424;28;20461;-67
2023/10/26 09:38:03;;;;;;;9.97;8.00;;;12.20;99.90;;;;;;5053587;28;20438;-68
2023/10/26 09:40:33;;;;;;;10.60;8.20;;;12.20;99.90;;;;;;5054171;28;20427;-68
2023/10/26 09:43:15;;;;;;;10.57;7.53;;;12.30;99.90;;;;;;5054413;28;20423;-67
2023/10/26 09:45:46;;;;;;;9.03;6.70;;;12.30;99.90;;;;;;5053276;28;20516;-67
2023/10/26 09:48:14;;;;;;;11.77;7.93;;;12.20;99.90;;;;;;5054108;28;20511;-66
2023/10/26 09:50:45;;;;;;;14.60;7.60;;;12.20;99.90;;;;;;5053400;28;20440;-67
2023/10/26 09:53:16;;;;;;;11.97;8.37;;;12.30;99.90;;;;;;5053703;28;20442;-67
2023/10/26 09:55:50;;;;;;;11.03;7.70;;;12.30;99.90;;;;;;5054203;28;20489;-66
2023/10/26 09:58:20;;;;;;;9.83;7.10;;;12.30;99.90;;;;;;5053916;28;20467;-67
2023/10/26 10:00:53;;;;;;;12.53;7.60;;;12.30;99.90;;;;;;5053499;28;20471;-68
2023/10/26 10:03:20;;;;;;;10.70;7.47;;;12.30;99.90;;;;;;5053681;28;20872;-67
2023/10/26 10:05:49;;;;;;;8.70;6.70;;;12.30;99.90;;;;;;5053811;28;20470;-65
2023/10/26 10:08:55;;;;;;;9.47;6.77;;;12.30;99.90;;;;;;5053813;28;20430;-67
2023/10/26 10:11:25;;;;;;;12.53;7.27;;;12.40;99.90;;;;;;5035778;28;20447;-66
2023/10/26 10:14:01;;;;;;;12.00;8.20;;;12.40;99.90;;;;;;5036508;28;20912;-66
2023/10/26 10:16:51;;;;;;;10.20;6.67;;;12.40;99.90;;;;;;5053764;28;20520;-68
2023/10/26 10:19:22;;;;;;;12.73;7.30;;;12.40;99.90;;;;;;5053569;28;20990;-67
2023/10/26 10:21:51;;;;;;;10.50;7.00;;;12.40;99.90;;;;;;5053183;28;20486;-67
2023/10/26 10:24:56;;;;;;;10.67;6.80;;;12.40;99.90;;;;;;5054040;28;20472;-67
2023/10/26 10:27:23;;;;;;;10.77;6.77;;;12.40;99.90;;;;;;5054202;28;20438;-67
2023/10/26 10:30:05;;;;;;;9.40;6.70;;;12.40;99.90;;;;;;5058024;28;20428;-67
2023/10/26 10:32:52;;;;;;;10.20;7.13;;;12.40;99.90;;;;;;5057636;28;20830;-67
2023/10/26 10:35:39;;;;;;;8.97;6.10;;;12.40;99.90;;;;;;5057117;28;20462;-67
2023/10/26 10:38:24;;;;;;;8.40;6.07;;;12.40;99.90;;;;;;5056863;28;21032;-67
2023/10/26 10:41:21;;;;;;;9.10;6.37;;;12.40;99.90;;;;;;5057605;28;20427;-67
2023/10/26 10:43:49;;;;;;;6.90;4.80;;;12.40;99.90;;;;;;5040739;28;20553;-66
2023/10/26 10:46:21;;;;;;;11.00;7.20;;;12.30;99.90;;;;;;5057445;28;20979;-69
2023/10/26 10:49:08;;;;;;;9.60;6.50;;;12.30;99.90;;;;;;5057366;28;20423;-67
2023/10/26 10:51:48;;;;;;;8.23;5.40;;;12.40;99.90;;;;;;5056452;28;20521;-67
2023/10/26 10:54:17;;;;;;;9.57;7.23;;;12.30;99.90;;;;;;5056928;28;20423;-69
2023/10/26 10:56:53;;;;;;;10.50;6.13;;;12.30;99.90;;;;;;5056754;28;20474;-68
2023/10/26 10:59:22;;;;;;;11.33;7.13;;;12.30;99.90;;;;;;5056944;28;20557;-68
2023/10/26 11:02:09;;;;;;;7.70;6.20;;;12.30;99.90;;;;;;5056653;28;20427;-67
2023/10/26 11:04:36;;;;;;;11.30;7.40;;;12.30;99.90;;;;;;5056543;28;20442;-68
2023/10/26 11:07:03;;;;;;;9.80;7.40;;;12.40;99.90;;;;;;5062582;28;20466;-68
2023/10/26 11:09:37;;;;;;;10.63;7.30;;;12.40;99.90;;;;;;5078593;28;20776;-68
2023/10/26 11:12:13;;;;;;;8.53;6.60;;;12.40;99.90;;;;;;5077554;28;20484;-68
2023/10/26 11:14:49;;;;;;;11.10;7.60;;;12.40;99.90;;;;;;5076252;28;20458;-68
2023/10/26 11:17:19;;;;;;;8.77;7.20;;;12.40;99.90;;;;;;5076691;28;20493;-66
2023/10/26 11:19:48;;;;;;;11.00;7.33;;;12.40;99.90;;;;;;5076570;28;20466;-67
2023/10/26 11:22:16;;;;;;;11.43;8.50;;;12.40;99.90;;;;;;5076916;28;20611;-68
2023/10/26 11:24:55;;;;;;;11.57;8.30;;;12.40;99.90;;;;;;5058491;28;20529;-68
2023/10/26 11:27:27;;;;;;;12.70;7.90;;;12.50;99.90;;;;;;5076020;28;20474;-68
2023/10/26 11:30:03;;;;;;;12.73;8.17;;;12.50;99.90;;;;;;5059017;28;20425;-67
2023/10/26 11:32:40;;;;;;;11.10;7.30;;;12.50;99.90;;;;;;5056960;28;20501;-67
2023/10/26 11:35:11;;;;;;;15.67;8.60;;;12.50;99.90;;;;;;5066679;28;20435;-70
2023/10/26 11:37:56;;;;;;;15.23;9.17;;;12.50;99.90;;;;;;5055719;28;20432;-67
2023/10/26 11:40:30;;;;;;;10.63;8.03;;;12.60;99.90;;;;;;5054013;28;20471;-67
2023/10/26 11:43:00;;;;;;;17.00;9.30;;;12.60;99.90;;;;;;5035771;28;20485;-68
2023/10/26 11:45:30;;;;;;;13.27;8.10;;;12.60;99.90;;;;;;5054817;28;20467;-69
2023/10/26 11:48:00;;;;;;;13.33;9.53;;;12.60;99.90;;;;;;5055170;28;20474;-70
2023/10/26 11:50:29;;;;;;;12.13;8.83;;;12.60;99.90;;;;;;5055307;28;20412;-67
2023/10/26 11:53:00;;;;;;;13.53;9.17;;;12.60;99.90;;;;;;5055535;28;20427;-68
2023/10/26 11:55:29;;;;;;;17.90;9.83;;;12.60;99.90;;;;;;5055439;28;20816;-68
2023/10/26 11:57:59;;;;;;;11.80;8.53;;;12.60;99.90;;;;;;5055510;28;20454;-70
2023/10/26 12:00:28;;;;;;;15.50;9.83;;;12.60;99.90;;;;;;5055027;28;20507;-68
2023/10/26 12:02:58;;;;;;;14.73;9.13;;;12.50;99.90;;;;;;5055403;28;20849;-68
2023/10/26 12:05:26;;;;;;;14.40;8.30;;;12.50;99.90;;;;;;5055135;28;20458;-67
2023/10/26 12:07:54;;;;;;;12.37;8.13;;;12.50;99.90;;;;;;5055313;28;20929;-68
2023/10/26 12:10:24;;;;;;;13.90;9.33;;;12.40;99.90;;;;;;5055160;28;20499;-67
2023/10/26 12:12:52;;;;;;;12.30;9.13;;;12.40;99.90;;;;;;5055473;28;20494;-67
2023/10/26 12:15:22;;;;;;;14.10;7.97;;;12.40;99.90;;;;;;5054742;28;20499;-69
2023/10/26 12:17:51;;;;;;;13.33;10.20;;;12.40;99.90;;;;;;5055256;28;20466;-66
2023/10/26 12:20:22;;;;;;;13.53;8.63;;;12.40;99.90;;;;;;5055325;28;20478;-68
2023/10/26 12:22:51;;;;;;;16.63;10.63;;;12.40;99.90;;;;;;5054387;28;20489;-67
2023/10/26 12:25:21;;;;;;;15.10;9.93;;;12.40;99.90;;;;;;5055311;28;20467;-68
2023/10/26 12:28:07;;;;;;;14.13;10.53;;;12.50;99.90;;;;;;5054755;28;20439;-66
2023/10/26 12:30:33;;;;;;;13.87;9.27;;;12.50;99.90;;;;;;5055018;28;20440;-67
2023/10/26 12:33:03;;;;;;;16.37;10.30;;;12.60;99.90;;;;;;5055336;28;20477;-68
2023/10/26 12:35:36;;;;;;;14.63;10.23;;;12.60;99.90;;;;;;5054966;28;20491;-68
2023/10/26 12:38:03;;;;;;;14.03;8.70;;;12.60;99.90;;;;;;5055519;28;20436;-68
2023/10/26 12:40:32;;;;;;;13.80;9.30;;;12.60;99.90;;;;;;5055043;28;20831;-67
2023/10/26 12:43:00;;;;;;;14.00;9.07;;;12.70;99.90;;;;;;5054786;28;20432;-68
2023/10/26 12:45:27;;;;;;;13.40;8.50;;;12.70;99.90;;;;;;5054717;28;21003;-69
2023/10/26 12:47:58;;;;;;;13.60;10.33;;;12.70;99.90;;;;;;5054822;28;20451;-67
2023/10/26 12:50:25;;;;;;;12.83;8.70;;;12.70;99.90;;;;;;5054304;28;20427;-68
2023/10/26 12:52:54;;;;;;;18.30;9.77;;;12.70;99.90;;;;;;5054474;28;20517;-67
2023/10/26 12:55:23;;;;;;;11.03;8.40;;;12.70;99.90;;;;;;5054538;28;20546;-68